Flight Track Log - Related Links

Times and Time Zones

All times are in EDT time to prevent confusion due to time zone crossing. See the C-FTOH flight status page for this flight to view local times or setup timezone preferences in your user account.

Time Position Orientation Groundspeed Altitude Reporting Facility
EDT Latitude Longitude Course Direction KTS MPH feet Rate Location/Type
Mon 06:02:00 PM 21.8560 -86.5421 21° North  Level Estimated
Mon 06:03:00 PM 21.9745 -86.4933 21° North  Level Estimated
Mon 06:04:00 PM 22.0929 -86.4445 21° North  Level Estimated
Mon 06:05:00 PM 22.2113 -86.3956 21° North  Level Estimated
Mon 06:06:00 PM 22.3297 -86.3465 21° North  Level Estimated
Mon 06:07:00 PM 22.4480 -86.2975 21° North  Level Estimated
Mon 06:08:00 PM 22.5664 -86.2483 21° North  Level Estimated
Mon 06:09:00 PM 22.6847 -86.1991 21° North  Level Estimated
Mon 06:10:00 PM 22.8030 -86.1497 21° North  Level Estimated
Mon 06:11:00 PM 22.9213 -86.1003 21° North  Level Estimated
Mon 06:12:00 PM 23.0396 -86.0508 21° North  Level Estimated
Mon 06:13:00 PM 23.1579 -86.0012 21° North  Level Estimated
Mon 06:14:00 PM 23.2762 -85.9515 21° North  Level Estimated
Mon 06:15:00 PM 23.3944 -85.9017 21° North  Level Estimated
Mon 06:16:00 PM 23.5126 -85.8519 21° North  Level Estimated
Mon 06:17:00 PM 23.6309 -85.8019 21° North  Level Estimated
Mon 06:18:00 PM 23.7491 -85.7519 21° North  Level Estimated
Mon 06:19:00 PM 23.8672 -85.7018 21° North  Level Estimated
Mon 06:20:00 PM 23.9854 -85.6515 21° North  Level Estimated
Mon 06:21:00 PM 24.1036 -85.6012 21° North  Level Estimated
Mon 06:22:00 PM 24.2217 -85.5508 21° North  Level Estimated
Mon 06:23:00 PM 24.3398 -85.5003 21° North  Level Estimated
Mon 06:24:00 PM 24.4579 -85.4497 21° North  Level Estimated
Mon 06:24:59 PM 24.0747 -86.1439 21° North 505 581 34,900  Level Houston Center
Mon 06:25:00 PM 24.5760 -85.3990 21° North  Level Estimated
Mon 06:26:00 PM 24.6941 -85.3482 21° North  Level Estimated
Mon 06:26:01 PM 24.1925 -86.0731 29° Northeast 516 594 34,900  Level Houston Center
Mon 06:27:00 PM 24.8121 -85.2974 21° North  Level Estimated
Mon 06:27:03 PM 24.3056 -86.0011 30° Northeast 492 566 34,900  Level Houston Center
Mon 06:28:00 PM 24.9301 -85.2464 21° North  Level Estimated
Mon 06:28:05 PM 24.4175 -85.9292 30° Northeast 479 551 34,900  Level Houston Center
Mon 06:29:00 PM 25.0481 -85.1953 21° North  Level Estimated
Mon 06:29:07 PM 24.5344 -85.8564 30° Northeast 477 549 34,900  Level Houston Center
Mon 06:30:00 PM 25.1661 -85.1441 21° North  Level Estimated
Mon 06:30:09 PM 24.6483 -85.7839 30° Northeast 475 547 34,900  Level Houston Center
Mon 06:31:11 PM 24.7678 -85.7122 29° Northeast 477 549 34,900  Level Houston Center
Mon 06:32:13 PM 24.9017 -85.6242 31° Northeast 476 548 34,900  Level Houston Center
Mon 06:33:15 PM 25.0203 -85.5508 29° Northeast 478 550 34,900  Level Houston Center
Mon 06:34:17 PM 25.1367 -85.4778 30° Northeast 479 551 34,900  Level Houston Center
Mon 06:35:19 PM 25.2472 -85.4056 31° Northeast 475 547 34,900  Level Houston Center
Mon 06:36:15 PM 25.3756 -85.3417 24° Northeast 480 552 34,900  Level Miami Center
Mon 06:37:15 PM 25.4975 -85.3272 North 457 526 34,900  Level Miami Center
Mon 06:38:15 PM 25.6147 -85.3172 North 429 494 34,900  Level Miami Center
Mon 06:39:15 PM 25.7281 -85.3067 North 431 496 34,900  Level Miami Center
Mon 06:40:15 PM 25.8519 -85.2878 North 425 489 34,900  Level Miami Center
Mon 06:41:15 PM 25.9694 -85.2753 North 420 483 34,900  Level Miami Center
Mon 06:42:15 PM 26.0911 -85.2608 North 423 487 34,900  Level Miami Center
Mon 06:43:15 PM 26.2119 -85.1931 27° Northeast 452 520 34,900  Level Miami Center
Mon 06:44:15 PM 26.3117 -85.0892 43° Northeast 464 534 34,900  Level Miami Center
Mon 06:45:15 PM 26.4153 -84.9875 41° Northeast 482 555 34,900  Level Miami Center
Mon 06:46:15 PM 26.5208 -84.8883 40° Northeast 482 555 34,900  Level Miami Center
Mon 06:47:15 PM 26.6206 -84.7839 43° Northeast 487 560 34,900  Level Miami Center
Mon 06:48:15 PM 26.7219 -84.6839 41° Northeast 487 560 34,900 15 Level Miami Center
Mon 06:53:52 PM 27.3000 -84.1250 41° Northeast 495 570 35,000 16 Climbing FlightAware ADS-B
Mon 06:54:37 PM 27.3730 -84.0530 41° Northeast 496 571 35,000  Level FlightAware ADS-B
Mon 06:55:17 PM 27.4460 -83.9800 42° Northeast 498 573 35,000  Level FlightAware ADS-B
Mon 06:56:02 PM 27.5220 -83.9050 41° Northeast 497 572 35,000  Level FlightAware ADS-B
Mon 06:56:42 PM 27.5930 -83.8330 42° Northeast 495 570 35,000  Level FlightAware ADS-B
Mon 06:57:22 PM 27.6610 -83.7650 42° Northeast 494 568 35,000  Level FlightAware ADS-B
Mon 06:58:07 PM 27.7380 -83.6880 42° Northeast 494 568 35,000  Level FlightAware ADS-B
Mon 06:58:47 PM 27.8060 -83.6190 42° Northeast 485 558 35,000  Level FlightAware ADS-B
Mon 06:59:32 PM 27.8840 -83.5410 41° Northeast 485 558 35,000  Level FlightAware ADS-B
Mon 07:00:12 PM 27.9510 -83.4740 41° Northeast 484 557 35,000  Level FlightAware ADS-B
Mon 07:00:52 PM 28.0260 -83.4170 34° Northeast 473 544 35,000  Level FlightAware ADS-B
Mon 07:01:37 PM 28.1180 -83.3830 18° North 457 526 35,000  Level FlightAware ADS-B
Mon 07:02:17 PM 28.1930 -83.3580 16° North 456 525 35,000  Level FlightAware ADS-B
Mon 07:03:02 PM 28.2930 -83.3240 17° North 455 524 35,000  Level FlightAware ADS-B
Mon 07:03:42 PM 28.3760 -83.2960 17° North 456 525 35,000  Level FlightAware ADS-B
Mon 07:04:22 PM 28.4600 -83.2670 17° North 455 524 35,000  Level FlightAware ADS-B
Mon 07:05:07 PM 28.5510 -83.2360 17° North 454 522 35,000  Level FlightAware ADS-B
Mon 07:05:47 PM 28.6320 -83.2080 17° North 453 521 35,000  Level FlightAware ADS-B
Mon 07:06:32 PM 28.7250 -83.1760 17° North 453 521 35,000  Level FlightAware ADS-B
Mon 07:07:12 PM 28.8060 -83.1480 17° North 452 520 35,000  Level FlightAware ADS-B
Mon 07:07:52 PM 28.8880 -83.1200 17° North 451 519 35,000  Level FlightAware ADS-B
Mon 07:08:37 PM 28.9790 -83.0880 17° North 458 527 35,000  Level FlightAware ADS-B
Mon 07:09:17 PM 29.0610 -83.0600 17° North 456 525 35,000  Level FlightAware ADS-B
Mon 07:09:57 PM 29.1410 -83.0320 17° North 456 525 35,000  Level FlightAware ADS-B
Mon 07:10:37 PM 29.2120 -83.0080 16° North 456 525 35,000  Level FlightAware ADS-B
Mon 07:11:22 PM 29.2930 -82.9810 16° North 456 525 35,000  Level FlightAware ADS-B
Mon 07:12:07 PM 29.4030 -82.9410 18° North 451 519 35,000  Level FlightAware ADS-B
Mon 07:12:42 PM 29.4750 -82.9160 17° North 453 521 35,000  Level FlightAware ADS-B
Mon 07:13:27 PM 29.5620 -82.8860 17° North 454 522 35,000  Level FlightAware ADS-B
Mon 07:14:07 PM 29.6380 -82.8590 17° North 454 522 35,000  Level FlightAware ADS-B
Mon 07:14:47 PM 29.7060 -82.8350 17° North 454 522 35,000  Level FlightAware ADS-B
Mon 07:15:37 PM 29.7910 -82.8050 17° North 454 522 35,000  Level FlightAware ADS-B
Mon 07:16:17 PM 29.8600 -82.7810 17° North 454 522 35,000  Level FlightAware ADS-B
Mon 07:16:57 PM 29.9280 -82.7570 17° North 454 522 35,000  Level FlightAware ADS-B
Mon 07:17:37 PM 29.9960 -82.7330 17° North 454 522 35,000  Level FlightAware ADS-B
Mon 07:18:17 PM 30.0640 -82.7090 17° North 454 522 35,000  Level FlightAware ADS-B
Mon 07:19:07 PM 30.1500 -82.6790 17° North 454 522 35,000  Level FlightAware ADS-B
Mon 07:19:47 PM 30.2180 -82.6550 17° North 454 522 35,000  Level FlightAware ADS-B
Mon 07:20:27 PM 30.2860 -82.6300 18° North 454 522 35,000  Level FlightAware ADS-B
Mon 07:21:07 PM 30.3550 -82.6060 17° North 454 522 35,000  Level FlightAware ADS-B
Mon 07:21:47 PM 30.4230 -82.5820 17° North 454 522 35,000  Level FlightAware ADS-B
Mon 07:22:37 PM 30.5080 -82.5520 17° North 454 522 35,000  Level FlightAware ADS-B
Mon 07:23:17 PM 30.5770 -82.5280 17° North 454 522 35,000 -58 Level FlightAware ADS-B
Mon 07:24:20 PM 30.9211 -82.3914 17° North 470 541 34,900 -49 Descending Jacksonville Center
Mon 07:25:20 PM 31.0483 -82.3372 20° North 475 547 34,900  Level Jacksonville Center
Mon 07:26:20 PM 31.1756 -82.2881 18° North 475 547 34,900  Level Jacksonville Center
Mon 07:27:20 PM 31.3131 -82.2336 19° North 475 547 34,900  Level Jacksonville Center
Mon 07:28:20 PM 31.4400 -82.1864 18° North 469 540 34,900 14 Level Jacksonville Center
Mon 07:34:17 PM 32.1940 -81.8630 18° North 497 572 35,000 15 Climbing FlightAware ADS-B
Mon 07:34:57 PM 32.2800 -81.8220 22° Northeast 499 574 35,000  Level FlightAware ADS-B
Mon 07:35:37 PM 32.3640 -81.7820 22° Northeast 501 577 35,000  Level FlightAware ADS-B
Mon 07:36:12 PM 32.4330 -81.7490 22° Northeast 503 579 35,000  Level FlightAware ADS-B
Mon 07:37:02 PM 32.4330 -81.7490 22° Northeast 504 580 35,000  Level FlightAware ADS-B
Mon 07:37:47 PM 32.5220 -81.7060 22° Northeast 504 580 35,000  Level FlightAware ADS-B
Mon 07:38:22 PM 32.4870 -81.7230 202° Southwest 504 580 35,000 -65 Level FlightAware ADS-B
Mon 07:39:20 PM 32.8381 -81.5550 202° Southwest 494 568 34,900 -51 Descending Jacksonville Center
Mon 07:40:20 PM 32.9667 -81.4911 23° Northeast 494 568 34,900  Level Jacksonville Center
Mon 07:41:20 PM 33.0953 -81.4297 22° Northeast 494 568 34,900 50 Level Jacksonville Center
Mon 07:42:20 PM 33.2281 -81.3628 23° Northeast 494 568 35,000  Climbing Jacksonville Center
Mon 07:43:20 PM 33.3569 -81.3036 21° North 494 568 34,900 -50 Descending Jacksonville Center
Mon 07:44:20 PM 33.4958 -81.2339 23° Northeast 489 563 34,900 16 Level Jacksonville Center
Mon 07:49:47 PM 34.1950 -80.8920 23° Northeast 509 586 35,000 16 Climbing FlightAware ADS-B
Mon 07:50:47 PM 34.2680 -80.8560 22° Northeast 509 586 35,000  Level FlightAware ADS-B
Mon 07:51:27 PM 34.3430 -80.8200 22° Northeast 509 586 35,000  Level FlightAware ADS-B
Mon 07:52:07 PM 34.4170 -80.7830 22° Northeast 509 586 35,000  Level FlightAware ADS-B
Mon 07:52:47 PM 34.4910 -80.7470 22° Northeast 509 586 35,000  Level FlightAware ADS-B
Mon 07:53:37 PM 34.7090 -80.6420 22° Northeast 510 587 35,000  Level FlightAware ADS-B
Mon 07:54:17 PM 34.7870 -80.6040 22° Northeast 510 587 35,000  Level FlightAware ADS-B
Mon 07:55:02 PM 34.8890 -80.5540 22° Northeast 511 588 35,000  Level FlightAware ADS-B
Mon 07:55:57 PM 35.0020 -80.4980 22° Northeast 511 588 35,000  Level FlightAware ADS-B
Mon 07:56:37 PM 35.0770 -80.4610 22° Northeast 511 588 35,000  Level FlightAware ADS-B
Mon 07:57:17 PM 35.1510 -80.4240 22° Northeast 511 588 35,000  Level FlightAware ADS-B
Mon 07:58:02 PM 35.2870 -80.3570 22° Northeast 514 592 35,000  Level FlightAware ADS-B
Mon 07:58:42 PM 35.3700 -80.3160 22° Northeast 514 592 35,000  Level FlightAware ADS-B
Mon 07:59:22 PM 35.4450 -80.2780 22° Northeast 514 592 35,000  Level FlightAware ADS-B
Mon 08:00:02 PM 35.5200 -80.2410 22° Northeast 514 592 35,000  Level FlightAware ADS-B
Mon 08:00:52 PM 35.6140 -80.1950 22° Northeast 514 592 35,000  Level FlightAware ADS-B
Mon 08:01:32 PM 35.6890 -80.1570 22° Northeast 514 592 35,000  Level FlightAware ADS-B
Mon 08:02:12 PM 35.7640 -80.1200 22° Northeast 514 592 35,000  Level FlightAware ADS-B
Mon 08:02:52 PM 35.8390 -80.0830 22° Northeast 514 592 35,000  Level FlightAware ADS-B
Mon 08:03:32 PM 35.9140 -80.0450 22° Northeast 514 592 35,000  Level FlightAware ADS-B
Mon 08:04:22 PM 36.0080 -79.9990 22° Northeast 514 592 35,000  Level FlightAware ADS-B
Mon 08:05:02 PM 36.0830 -79.9610 22° Northeast 514 592 35,000  Level FlightAware ADS-B
Mon 08:05:42 PM 36.1580 -79.9240 22° Northeast 514 592 35,000  Level FlightAware ADS-B
Mon 08:06:22 PM 36.2320 -79.8860 22° Northeast 514 592 35,000  Level FlightAware ADS-B
Mon 08:07:02 PM 36.3070 -79.8490 22° Northeast 514 592 35,000  Level FlightAware ADS-B
Mon 08:07:52 PM 36.4010 -79.8020 22° Northeast 514 592 35,000  Level FlightAware ADS-B
Mon 08:08:43 PM 36.7319 -79.7722 22° Northeast 514 592 35,000  Level Washington Center
Mon 08:09:43 PM 36.8711 -79.7278 14° North 514 592 35,000  Level Washington Center
Mon 08:10:43 PM 37.0167 -79.6861 13° North 514 592 35,000  Level Washington Center
Mon 08:11:43 PM 37.1683 -79.6397 14° North 514 592 35,000  Level Washington Center
Mon 08:12:43 PM 37.3117 -79.5975 13° North 514 592 35,000  Level Washington Center
Mon 08:18:37 PM 38.1510 -79.3330 13° North 530 610 35,000  Level FlightAware ADS-B
Mon 08:19:17 PM 38.2540 -79.3000 14° North 531 611 35,000  Level FlightAware ADS-B
Mon 08:19:57 PM 38.3490 -79.2700 14° North 531 611 35,000  Level FlightAware ADS-B
Mon 08:20:42 PM 38.4600 -79.2350 14° North 532 612 35,000  Level FlightAware ADS-B
Mon 08:21:22 PM 38.5530 -79.2060 14° North 531 611 35,000  Level FlightAware ADS-B
Mon 08:26:22 PM 39.2450 -78.9780 14° North 529 609 35,000  Level FlightAware ADS-B
Mon 08:27:13 PM 39.3608 -78.9186 14° North 524 603 35,000  Level Cleveland Center
Mon 08:28:13 PM 39.4950 -78.8372 25° Northeast 524 603 35,000  Level Cleveland Center
Mon 08:29:13 PM 39.6272 -78.7583 25° Northeast 524 603 35,000  Level Cleveland Center
Mon 08:34:57 PM 40.3910 -78.3080 25° Northeast 525 604 35,000  Level FlightAware ADS-B
Mon 08:35:42 PM 40.4920 -78.2480 24° Northeast 525 604 35,000  Level FlightAware ADS-B
Mon 08:36:22 PM 40.5870 -78.1910 24° Northeast 518 596 35,000  Level FlightAware ADS-B
Mon 08:36:37 PM 40.6294 -78.1659 24° Northeast 526 605 35,000  Level FlightAware ADS-B
Mon 08:37:07 PM 40.6870 -78.1310 25° Northeast 518 596 35,000  Level FlightAware ADS-B
Mon 08:37:17 PM 40.7195 -78.1116 24° Northeast 526 605 35,000  Level FlightAware ADS-B
Mon 08:37:47 PM 40.7700 -78.0810 25° Northeast 517 595 35,000  Level FlightAware ADS-B
Mon 08:38:27 PM 40.8580 -78.0280 24° Northeast 524 603 35,000  Level FlightAware ADS-B
Mon 08:39:12 PM 40.9540 -77.9640 27° Northeast 526 605 35,000  Level FlightAware ADS-B
Mon 08:39:52 PM 41.0380 -77.8990 30° Northeast 527 606 35,000  Level FlightAware ADS-B
Mon 08:40:37 PM 41.1340 -77.8260 30° Northeast 528 608 35,000  Level FlightAware ADS-B
Mon 08:41:17 PM 41.2200 -77.7590 30° Northeast 530 610 35,000  Level FlightAware ADS-B
Mon 08:41:57 PM 41.3020 -77.6960 30° Northeast 532 612 35,000  Level FlightAware ADS-B
Mon 08:42:42 PM 41.3950 -77.6230 30° Northeast 534 615 35,000  Level FlightAware ADS-B
Mon 08:43:22 PM 41.4850 -77.5530 30° Northeast 537 618 35,000  Level FlightAware ADS-B
Mon 08:44:07 PM 41.5780 -77.4810 30° Northeast 538 619 35,000  Level FlightAware ADS-B
Mon 08:44:47 PM 41.6620 -77.4150 30° Northeast 538 619 35,000  Level FlightAware ADS-B
Mon 08:45:27 PM 41.7490 -77.3460 31° Northeast 535 616 35,000  Level FlightAware ADS-B
Mon 08:46:12 PM 41.8460 -77.2700 30° Northeast 532 612 35,000  Level FlightAware ADS-B
Mon 08:46:52 PM 41.9310 -77.2020 31° Northeast 531 611 35,000  Level FlightAware ADS-B
Mon 08:47:37 PM 42.0240 -77.1290 30° Northeast 531 611 35,000  Level FlightAware ADS-B
Mon 08:48:17 PM 42.1130 -77.0570 31° Northeast 531 611 35,000  Level FlightAware ADS-B
Mon 08:48:57 PM 42.1960 -76.9910 30° Northeast 529 609 35,000  Level FlightAware ADS-B
Mon 08:49:37 PM 42.2810 -76.9240 30° Northeast 531 611 35,000  Level FlightAware ADS-B
Mon 08:50:22 PM 42.3760 -76.8470 31° Northeast 532 612 35,000  Level FlightAware ADS-B
Mon 08:51:07 PM 42.4680 -76.7720 31° Northeast 532 612 35,000  Level FlightAware ADS-B
Mon 08:51:47 PM 42.5560 -76.7010 31° Northeast 532 612 35,000  Level FlightAware ADS-B
Mon 08:52:27 PM 42.6390 -76.6340 31° Northeast 531 611 35,000  Level FlightAware ADS-B
Mon 08:53:12 PM 42.7340 -76.5560 31° Northeast 528 608 35,000  Level FlightAware ADS-B
Mon 08:53:52 PM 42.8160 -76.4890 31° Northeast 525 604 35,000  Level FlightAware ADS-B
Mon 08:54:32 PM 42.8980 -76.4210 31° Northeast 523 602 35,000  Level FlightAware ADS-B
Mon 08:55:17 PM 42.9930 -76.3430 31° Northeast 520 598 35,000  Level FlightAware ADS-B
Mon 08:55:57 PM 43.0720 -76.2780 31° Northeast 518 596 35,000  Level FlightAware ADS-B
Mon 08:56:37 PM 43.1540 -76.2020 34° Northeast 518 596 35,000  Level FlightAware ADS-B
Mon 08:57:22 PM 43.2260 -76.0940 48° Northeast 516 594 35,000  Level FlightAware ADS-B
Mon 08:58:02 PM 43.2860 -75.9930 51° Northeast 514 592 35,000  Level FlightAware ADS-B
Mon 08:58:47 PM 43.3490 -75.8860 51° Northeast 511 588 35,000  Level FlightAware ADS-B
Mon 08:59:27 PM 43.4130 -75.7770 51° Northeast 509 586 35,000  Level FlightAware ADS-B
Mon 09:00:07 PM 43.4720 -75.6760 51° Northeast 510 587 35,000  Level FlightAware ADS-B
Mon 09:00:52 PM 43.5380 -75.5630 51° Northeast 513 590 35,000 -353 Level FlightAware ADS-B
Mon 09:01:32 PM 43.5970 -75.4610 51° Northeast 503 579 34,500 -918 Descending FlightAware ADS-B
Mon 09:02:17 PM 43.6590 -75.3540 51° Northeast 479 551 33,700 -1,129 Descending FlightAware ADS-B
Mon 09:02:57 PM 43.7150 -75.2560 52° Northeast 465 535 32,900 -1,050 Descending FlightAware ADS-B
Mon 09:03:37 PM 43.7650 -75.1700 51° Northeast 447 514 32,300 -988 Descending FlightAware ADS-B
Mon 09:04:22 PM 43.8230 -75.0680 52° Northeast 428 493 31,500 -988 Descending FlightAware ADS-B
Mon 09:05:02 PM 43.8680 -74.9900 51° Northeast 420 483 30,900 -1,059 Descending FlightAware ADS-B
Mon 09:05:47 PM 43.9310 -74.8810 51° Northeast 406 467 30,000 -1,129 Descending FlightAware ADS-B
Mon 09:06:27 PM 43.9750 -74.8030 52° Northeast 398 458 29,300 -750 Descending FlightAware ADS-B
Mon 09:07:07 PM 44.0240 -74.7150 52° Northeast 396 456 29,000 -212 Descending FlightAware ADS-B
Mon 09:07:52 PM 44.0740 -74.6270 52° Northeast 396 456 29,000  Level FlightAware ADS-B
Mon 09:08:32 PM 44.1180 -74.5490 52° Northeast 396 456 29,000 -565 Level FlightAware ADS-B
Mon 09:09:17 PM 44.1700 -74.4560 52° Northeast 392 451 28,200 -1,059 Descending FlightAware ADS-B
Mon 09:09:57 PM 44.2150 -74.3770 52° Northeast 385 443 27,500 -988 Descending FlightAware ADS-B
Mon 09:10:42 PM 44.2620 -74.2920 52° Northeast 377 434 26,800 -918 Descending FlightAware ADS-B
Mon 09:11:22 PM 44.3040 -74.2160 52° Northeast 374 430 26,200 -1,200 Descending FlightAware ADS-B
Mon 09:12:02 PM 44.3460 -74.1410 52° Northeast 364 419 25,200 -1,412 Descending FlightAware ADS-B
Mon 09:12:47 PM 44.3930 -74.0570 52° Northeast 353 406 24,200 -1,412 Descending FlightAware ADS-B
Mon 09:13:27 PM 44.4320 -73.9850 53° Northeast 343 395 23,200 -1,425 Descending FlightAware ADS-B
Mon 09:14:07 PM 44.4700 -73.9150 53° Northeast 333 383 22,300 -1,271 Descending FlightAware ADS-B
Mon 09:14:52 PM 44.5110 -73.8420 52° Northeast 321 369 21,400 -1,271 Descending FlightAware ADS-B
Mon 09:15:32 PM 44.5460 -73.7770 53° Northeast 311 358 20,500 -1,271 Descending FlightAware ADS-B
Mon 09:16:17 PM 44.5860 -73.7040 52° Northeast 309 356 19,600 -1,200 Descending FlightAware ADS-B
Mon 09:16:57 PM 44.6200 -73.6410 53° Northeast 304 350 18,800 -1,200 Descending FlightAware ADS-B
Mon 09:17:37 PM 44.6550 -73.5780 52° Northeast 300 345 18,000 -1,371 Descending FlightAware ADS-B
Mon 09:18:07 PM 44.6840 -73.5380 44° Northeast 303 349 17,200 -1,600 Descending FlightAware ADS-B
Mon 09:18:22 PM 44.7020 -73.5290 20° North 304 350 16,800 -1,600 Descending FlightAware ADS-B
Mon 09:18:37 PM 44.7240 -73.5270 North 305 351 16,400 -1,636 Descending FlightAware ADS-B
Mon 09:19:17 PM 44.7820 -73.5330 356° North 303 349 15,300 -1,575 Descending FlightAware ADS-B
Mon 09:19:57 PM 44.8370 -73.5390 356° North 300 345 14,300 -1,412 Descending FlightAware ADS-B
Mon 09:20:42 PM 44.8970 -73.5460 355° North 295 339 13,300 -1,341 Descending FlightAware ADS-B
Mon 09:21:22 PM 44.9520 -73.5520 356° North 289 333 12,400 -1,271 Descending FlightAware ADS-B
Mon 09:22:07 PM 45.0120 -73.5580 356° North 283 326 11,500 -1,271 Descending FlightAware ADS-B
Mon 09:22:47 PM 45.0640 -73.5640 355° North 279 321 10,600 -1,275 Descending FlightAware ADS-B
Mon 09:23:27 PM 45.1140 -73.5700 355° North 275 316 9,800 -1,200 Descending FlightAware ADS-B
Mon 09:23:57 PM 45.1520 -73.5740 356° North 270 311 9,200 -1,200 Descending FlightAware ADS-B
Mon 09:24:27 PM 45.1890 -73.5780 356° North 267 307 8,600 -1,200 Descending FlightAware ADS-B
Mon 09:24:52 PM 45.2190 -73.5810 356° North 265 305 8,100 -1,091 Descending FlightAware ADS-B
Mon 09:25:22 PM 45.2570 -73.5850 356° North 260 299 7,600 -1,467 Descending FlightAware ADS-B
Mon 09:25:37 PM 45.2740 -73.5930 342° North 262 302 7,000 -2,400 Descending FlightAware ADS-B
Mon 09:25:47 PM 45.2830 -73.6040 319° Northwest 266 306 6,600 -2,160 Descending FlightAware ADS-B
Mon 09:26:02 PM 45.2910 -73.6300 294° West 264 304 6,100 -889 Descending FlightAware ADS-B
Mon 09:26:41 PM 45.2833 -73.6833 294° West 260 299 5,800 -848 Descending Montreal Center
Mon 09:27:41 PM 45.2667 -73.7833 257° West 240 276 4,700 -1,100 Descending Montreal Center

Login

Don't have an account? Register now (free) for customized features, flight alerts, and more!